Time;durP1;ratioP1;P1;durP2;ratioP2;P2;SDS_P1;SDS_P2;PMS_P1;PMS_P2;Temp;Humidity;BMP_temperature;BMP_pressure;BME280_temperature;BME280_humidity;BME280_pressure;Samples;Min_cycle;Max_cycle;Signal;HPM_P1;HPM_P2
2023/10/28 00:00:45;;;;;;;55.87;2.20;;;;;;;;;;5067532;28;20522;-72
2023/10/28 00:03:12;;;;;;;55.97;2.07;;;;;;;;;;5068726;28;20552;-72
2023/10/28 00:05:40;;;;;;;56.17;2.17;;;;;;;;;;5067645;28;20448;-71
2023/10/28 00:08:07;;;;;;;56.30;2.40;;;;;;;;;;5067668;28;20436;-71
2023/10/28 00:10:35;;;;;;;56.20;2.20;;;;;;;;;;5063027;28;20585;-72
2023/10/28 00:13:02;;;;;;;55.80;2.10;;;;;;;;;;5057691;28;20444;-72
2023/10/28 00:15:31;;;;;;;55.73;2.00;;;;;;;;;;5068319;28;20449;-71
2023/10/28 00:17:58;;;;;;;55.87;2.20;;;;;;;;;;5056961;28;20850;-72
2023/10/28 00:20:25;;;;;;;56.20;1.90;;;;;;;;;;5059795;28;20464;-71
2023/10/28 00:22:53;;;;;;;55.57;2.00;;;;;;;;;;5065033;28;20487;-73
2023/10/28 00:25:22;;;;;;;55.60;2.00;;;;;;;;;;5062852;28;20446;-72
2023/10/28 00:27:49;;;;;;;55.83;1.93;;;;;;;;;;5060137;28;20554;-72
2023/10/28 00:30:17;;;;;;;56.00;2.10;;;;;;;;;;5066988;28;20477;-72
2023/10/28 00:32:45;;;;;;;56.07;2.10;;;;;;;;;;5058025;28;20548;-71
2023/10/28 00:35:12;;;;;;;55.87;1.93;;;;;;;;;;5054624;28;20440;-72
2023/10/28 00:37:40;;;;;;;56.00;2.00;;;;;;;;;;5056019;28;20499;-71
2023/10/28 00:40:07;;;;;;;55.77;2.03;;;;;;;;;;5054714;28;20977;-72
2023/10/28 00:42:35;;;;;;;56.17;1.97;;;;;;;;;;5053589;28;20455;-72
2023/10/28 00:45:02;;;;;;;56.10;1.90;;;;;;;;;;5052964;28;20504;-71
2023/10/28 00:47:30;;;;;;;56.00;2.20;;;;;;;;;;5053013;28;20445;-72
2023/10/28 00:49:59;;;;;;;55.93;1.97;;;;;;;;;;5052584;28;20461;-72
2023/10/28 00:52:27;;;;;;;56.10;2.00;;;;;;;;;;5052530;28;20438;-72
2023/10/28 00:54:56;;;;;;;55.83;2.40;;;;;;;;;;5051947;28;20533;-72
2023/10/28 00:57:23;;;;;;;56.10;2.17;;;;;;;;;;5052523;28;20463;-72
2023/10/28 00:59:50;;;;;;;55.90;1.97;;;;;;;;;;5052600;28;20493;-72
2023/10/28 01:02:18;;;;;;;55.93;2.20;;;;;;;;;;5052425;28;20448;-72
2023/10/28 01:04:45;;;;;;;55.97;2.30;;;;;;;;;;5052503;28;20464;-73
2023/10/28 01:07:13;;;;;;;55.97;2.07;;;;;;;;;;5052612;28;20512;-72
2023/10/28 01:09:47;;;;;;;55.60;2.17;;;;;;;;;;5052617;28;20470;-72
2023/10/28 01:12:14;;;;;;;55.63;2.00;;;;;;;;;;5052811;28;20870;-71
2023/10/28 01:14:41;;;;;;;56.00;1.90;;;;;;;;;;5052649;28;20447;-73
2023/10/28 01:17:08;;;;;;;55.67;1.90;;;;;;;;;;5052923;28;20487;-72
2023/10/28 01:19:36;;;;;;;55.70;1.90;;;;;;;;;;5051571;28;20992;-72
2023/10/28 01:22:05;;;;;;;55.57;1.97;;;;;;;;;;5052353;28;20448;-72
2023/10/28 01:24:34;;;;;;;55.57;1.80;;;;;;;;;;5052069;28;20543;-73
2023/10/28 01:27:02;;;;;;;55.93;1.93;;;;;;;;;;5052321;28;20452;-71
2023/10/28 01:29:29;;;;;;;56.10;1.77;;;;;;;;;;5051899;28;20460;-73
2023/10/28 01:31:56;;;;;;;56.00;2.00;;;;;;;;;;5052164;28;20450;-72
2023/10/28 01:34:24;;;;;;;55.80;2.20;;;;;;;;;;5052032;28;20453;-73
2023/10/28 01:36:51;;;;;;;55.90;1.70;;;;;;;;;;5052176;28;20450;-72
2023/10/28 01:39:19;;;;;;;55.43;2.10;;;;;;;;;;5051826;28;20498;-73
2023/10/28 01:41:46;;;;;;;55.53;1.60;;;;;;;;;;5051766;28;20449;-73
2023/10/28 01:44:14;;;;;;;55.70;1.90;;;;;;;;;;5051701;28;20444;-72
2023/10/28 01:46:41;;;;;;;55.63;1.97;;;;;;;;;;5051545;28;20806;-72
2023/10/28 01:49:10;;;;;;;55.43;1.90;;;;;;;;;;5051843;28;20442;-73
2023/10/28 01:51:37;;;;;;;56.40;2.30;;;;;;;;;;5051776;28;20452;-72
2023/10/28 01:54:04;;;;;;;55.83;1.97;;;;;;;;;;5051527;28;20479;-73
2023/10/28 01:56:33;;;;;;;56.00;1.90;;;;;;;;;;5043372;28;20811;-73
2023/10/28 01:59:01;;;;;;;55.77;1.93;;;;;;;;;;5051908;28;20489;-73
2023/10/28 02:01:28;;;;;;;55.67;1.80;;;;;;;;;;5051770;28;20490;-73
2023/10/28 02:03:56;;;;;;;55.63;2.00;;;;;;;;;;5051406;28;20578;-72
2023/10/28 02:06:23;;;;;;;56.10;2.00;;;;;;;;;;5050781;28;20488;-73
2023/10/28 02:08:50;;;;;;;56.07;2.43;;;;;;;;;;5051837;28;20451;-73
2023/10/28 02:11:20;;;;;;;55.80;1.90;;;;;;;;;;5051710;28;20833;-72
2023/10/28 02:13:48;;;;;;;56.00;2.07;;;;;;;;;;5051290;28;20450;-72
2023/10/28 02:16:15;;;;;;;55.67;1.70;;;;;;;;;;5051168;28;20464;-72
2023/10/28 02:18:43;;;;;;;56.10;2.10;;;;;;;;;;5051122;28;20861;-73
2023/10/28 02:21:10;;;;;;;56.10;2.00;;;;;;;;;;5051592;28;20824;-73
2023/10/28 02:23:37;;;;;;;55.90;2.50;;;;;;;;;;5051353;28;20476;-73
2023/10/28 02:26:05;;;;;;;56.00;2.43;;;;;;;;;;5051000;28;20449;-72
2023/10/28 02:28:32;;;;;;;55.90;1.63;;;;;;;;;;5050993;28;20446;-73
2023/10/28 02:31:00;;;;;;;55.77;1.90;;;;;;;;;;5050960;28;20984;-73
2023/10/28 02:33:27;;;;;;;55.53;2.13;;;;;;;;;;5050983;28;20473;-73
2023/10/28 02:35:54;;;;;;;55.57;2.00;;;;;;;;;;5050864;28;20445;-70
2023/10/28 02:38:21;;;;;;;55.73;2.10;;;;;;;;;;5050820;28;20449;-73
2023/10/28 02:40:48;;;;;;;56.00;1.90;;;;;;;;;;5050735;28;20464;-71
2023/10/28 02:43:16;;;;;;;55.83;1.90;;;;;;;;;;5050688;28;20455;-73
2023/10/28 02:45:43;;;;;;;55.67;1.70;;;;;;;;;;5051004;28;20885;-71
2023/10/28 02:48:11;;;;;;;55.77;2.07;;;;;;;;;;5050917;28;21054;-72
2023/10/28 02:50:38;;;;;;;55.37;1.90;;;;;;;;;;5050770;28;20466;-72
2023/10/28 02:53:05;;;;;;;55.90;2.00;;;;;;;;;;5050811;28;20446;-73
2023/10/28 02:55:32;;;;;;;56.00;1.83;;;;;;;;;;5050411;28;20451;-73
2023/10/28 02:57:59;;;;;;;55.90;1.90;;;;;;;;;;5051053;28;20444;-71
2023/10/28 03:00:26;;;;;;;56.13;1.90;;;;;;;;;;5053498;28;20496;-70
2023/10/28 03:02:55;;;;;;;55.83;2.10;;;;;;;;;;5054979;28;20445;-71
2023/10/28 03:05:24;;;;;;;55.70;1.80;;;;;;;;;;5054709;28;20461;-70
2023/10/28 03:07:51;;;;;;;56.13;2.10;;;;;;;;;;5055020;28;20452;-71
2023/10/28 03:10:18;;;;;;;55.57;2.10;;;;;;;;;;5054461;28;20469;-73
2023/10/28 03:12:45;;;;;;;56.10;2.17;;;;;;;;;;5055126;28;20446;-72
2023/10/28 03:15:12;;;;;;;55.87;2.00;;;;;;;;;;5054655;28;20451;-73
2023/10/28 03:17:40;;;;;;;56.10;2.10;;;;;;;;;;5054904;28;20501;-73
2023/10/28 03:20:08;;;;;;;55.57;1.93;;;;;;;;;;5054868;28;20531;-72
2023/10/28 03:22:37;;;;;;;55.67;2.13;;;;;;;;;;5054233;28;21000;-73
2023/10/28 03:25:04;;;;;;;55.67;2.00;;;;;;;;;;5054209;28;20448;-72
2023/10/28 03:27:32;;;;;;;55.90;2.13;;;;;;;;;;5054207;28;21055;-72
2023/10/28 03:29:59;;;;;;;55.43;1.83;;;;;;;;;;5054519;28;20464;-72
2023/10/28 03:32:26;;;;;;;55.77;1.90;;;;;;;;;;5054094;28;20450;-73
2023/10/28 03:34:53;;;;;;;56.50;1.90;;;;;;;;;;5054075;28;20549;-72
2023/10/28 03:37:20;;;;;;;55.87;1.90;;;;;;;;;;5054259;28;20452;-73
2023/10/28 03:39:49;;;;;;;55.90;2.37;;;;;;;;;;5053929;28;20495;-73
2023/10/28 03:42:16;;;;;;;55.83;2.00;;;;;;;;;;5054191;28;20450;-73
2023/10/28 03:44:43;;;;;;;55.77;2.00;;;;;;;;;;5053979;28;20451;-72
2023/10/28 03:47:10;;;;;;;56.07;2.10;;;;;;;;;;5054088;28;20941;-73
2023/10/28 03:49:37;;;;;;;55.53;1.90;;;;;;;;;;5045727;28;20558;-72
2023/10/28 03:52:05;;;;;;;55.90;1.80;;;;;;;;;;5053884;28;20761;-73
2023/10/28 03:54:32;;;;;;;55.90;1.83;;;;;;;;;;5053796;28;20913;-71
2023/10/28 03:57:00;;;;;;;55.77;2.13;;;;;;;;;;5054059;28;20626;-72
2023/10/28 03:59:27;;;;;;;56.00;2.00;;;;;;;;;;5053511;28;21035;-71
2023/10/28 04:01:55;;;;;;;55.90;2.30;;;;;;;;;;5053569;28;20460;-72
2023/10/28 04:04:23;;;;;;;56.47;2.40;;;;;;;;;;5053523;28;20455;-72
2023/10/28 04:06:53;;;;;;;55.73;1.97;;;;;;;;;;5053598;28;20551;-72
2023/10/28 04:09:20;;;;;;;55.80;1.90;;;;;;;;;;5053319;28;20516;-72
2023/10/28 04:11:47;;;;;;;55.37;2.00;;;;;;;;;;5053145;28;20456;-72
2023/10/28 04:14:16;;;;;;;55.90;2.30;;;;;;;;;;5053359;28;20454;-72
2023/10/28 04:16:43;;;;;;;55.73;1.90;;;;;;;;;;5053393;28;20496;-72
2023/10/28 04:19:10;;;;;;;55.63;1.97;;;;;;;;;;5053570;28;20496;-72
2023/10/28 04:21:38;;;;;;;56.30;2.60;;;;;;;;;;5053220;28;20449;-72
2023/10/28 04:24:07;;;;;;;55.70;1.90;;;;;;;;;;5053424;28;20456;-72
2023/10/28 04:26:34;;;;;;;56.40;2.53;;;;;;;;;;5053375;28;20552;-71
2023/10/28 04:29:01;;;;;;;56.10;2.00;;;;;;;;;;5053253;28;20468;-72
2023/10/28 04:31:30;;;;;;;56.07;2.47;;;;;;;;;;5052982;28;20990;-72
2023/10/28 04:33:57;;;;;;;55.90;2.00;;;;;;;;;;5053660;28;20440;-72
2023/10/28 04:36:24;;;;;;;55.63;1.80;;;;;;;;;;5053160;28;20851;-71
2023/10/28 04:38:52;;;;;;;56.10;2.40;;;;;;;;;;5053188;28;20475;-72
2023/10/28 04:41:19;;;;;;;55.70;1.90;;;;;;;;;;5053052;28;20458;-72
2023/10/28 04:43:46;;;;;;;56.40;3.00;;;;;;;;;;5053685;28;20451;-72
2023/10/28 04:46:13;;;;;;;55.77;2.00;;;;;;;;;;5053125;28;20436;-72
2023/10/28 04:48:42;;;;;;;55.10;1.77;;;;;;;;;;5053743;28;20509;-72
2023/10/28 04:51:09;;;;;;;55.77;2.10;;;;;;;;;;5053434;28;20639;-71
2023/10/28 04:53:36;;;;;;;55.77;1.93;;;;;;;;;;5053371;28;20458;-71
2023/10/28 04:56:04;;;;;;;55.77;1.97;;;;;;;;;;5064547;28;20446;-71
2023/10/28 04:58:31;;;;;;;55.83;1.87;;;;;;;;;;5065450;28;20454;-72
2023/10/28 05:00:58;;;;;;;55.67;1.83;;;;;;;;;;5066437;28;20495;-71
2023/10/28 05:03:25;;;;;;;56.47;2.17;;;;;;;;;;5066374;28;20911;-71
2023/10/28 05:05:53;;;;;;;56.10;1.97;;;;;;;;;;5058517;28;20448;-72
2023/10/28 05:08:20;;;;;;;55.63;2.17;;;;;;;;;;5053845;28;20444;-72
2023/10/28 05:10:47;;;;;;;56.77;2.30;;;;;;;;;;5053759;28;20972;-72
2023/10/28 05:13:15;;;;;;;55.17;2.10;;;;;;;;;;5053426;28;20792;-72
2023/10/28 05:15:42;;;;;;;56.00;2.00;;;;;;;;;;5053796;28;20445;-72
2023/10/28 05:18:09;;;;;;;55.90;1.93;;;;;;;;;;5053974;28;20452;-72
2023/10/28 05:20:36;;;;;;;55.77;1.90;;;;;;;;;;5053871;28;20488;-72
2023/10/28 05:23:04;;;;;;;55.97;2.07;;;;;;;;;;5053265;28;20537;-71
2023/10/28 05:25:32;;;;;;;55.17;2.00;;;;;;;;;;5053775;28;20472;-72
2023/10/28 05:27:59;;;;;;;55.93;2.60;;;;;;;;;;5053612;28;20492;-71
2023/10/28 05:30:26;;;;;;;55.17;1.83;;;;;;;;;;5053349;28;20480;-72
2023/10/28 05:32:53;;;;;;;55.50;1.97;;;;;;;;;;5053382;28;20449;-72
2023/10/28 05:35:20;;;;;;;55.87;2.00;;;;;;;;;;5053349;28;20452;-72
2023/10/28 05:37:47;;;;;;;55.60;1.63;;;;;;;;;;5053252;28;20475;-72
2023/10/28 05:40:16;;;;;;;55.47;1.80;;;;;;;;;;5051805;28;20489;-72
2023/10/28 05:42:43;;;;;;;55.77;1.80;;;;;;;;;;5044122;28;20716;-73
2023/10/28 05:45:13;;;;;;;55.97;2.00;;;;;;;;;;5052033;28;20442;-72
2023/10/28 05:47:40;;;;;;;55.57;1.97;;;;;;;;;;5051697;28;20886;-72
2023/10/28 05:50:08;;;;;;;55.43;1.80;;;;;;;;;;5051531;28;20463;-71
2023/10/28 05:52:35;;;;;;;55.60;1.83;;;;;;;;;;5051542;28;20517;-73
2023/10/28 05:55:02;;;;;;;55.90;1.80;;;;;;;;;;5051572;28;20441;-73
2023/10/28 05:57:31;;;;;;;55.17;2.00;;;;;;;;;;5051905;28;20550;-73
2023/10/28 05:59:58;;;;;;;55.57;2.23;;;;;;;;;;5051571;28;20484;-72
2023/10/28 06:02:25;;;;;;;55.90;1.93;;;;;;;;;;5051354;28;20452;-72
2023/10/28 06:04:53;;;;;;;55.87;1.80;;;;;;;;;;5051427;28;20500;-72
2023/10/28 06:07:20;;;;;;;56.10;1.83;;;;;;;;;;5051268;28;20505;-72
2023/10/28 06:09:47;;;;;;;55.90;1.90;;;;;;;;;;5051401;28;20460;-72
2023/10/28 06:12:15;;;;;;;55.70;1.80;;;;;;;;;;5051328;28;20498;-73
2023/10/28 06:14:44;;;;;;;55.47;1.90;;;;;;;;;;5051192;28;20450;-72
2023/10/28 06:17:13;;;;;;;55.40;2.10;;;;;;;;;;5051574;28;20452;-72
2023/10/28 06:19:40;;;;;;;55.73;1.80;;;;;;;;;;5050713;28;20467;-72
2023/10/28 06:22:08;;;;;;;55.40;2.13;;;;;;;;;;5051379;28;20489;-73
2023/10/28 06:24:35;;;;;;;55.80;2.30;;;;;;;;;;5051082;28;20535;-73
2023/10/28 06:27:02;;;;;;;55.27;1.90;;;;;;;;;;5051048;28;21005;-71
2023/10/28 06:29:29;;;;;;;55.27;1.90;;;;;;;;;;5050945;28;20965;-73
2023/10/28 06:31:58;;;;;;;55.90;2.20;;;;;;;;;;5051137;28;20538;-72
2023/10/28 06:34:27;;;;;;;55.90;1.90;;;;;;;;;;5051176;28;20508;-72
2023/10/28 06:36:54;;;;;;;55.83;2.13;;;;;;;;;;5051330;28;20461;-72
2023/10/28 06:39:21;;;;;;;55.57;2.10;;;;;;;;;;5051051;28;20466;-72
2023/10/28 06:41:48;;;;;;;55.97;1.90;;;;;;;;;;5051049;28;20491;-73
2023/10/28 06:44:15;;;;;;;55.67;1.70;;;;;;;;;;5051037;28;20451;-72
2023/10/28 06:46:43;;;;;;;55.90;1.90;;;;;;;;;;5050917;28;20445;-72
2023/10/28 06:49:11;;;;;;;55.17;1.73;;;;;;;;;;5051223;28;20875;-72
2023/10/28 06:51:38;;;;;;;55.67;1.90;;;;;;;;;;5050764;28;20477;-72
2023/10/28 06:54:06;;;;;;;55.80;1.90;;;;;;;;;;5050860;28;20494;-72
2023/10/28 06:56:33;;;;;;;55.80;2.30;;;;;;;;;;5051047;28;20462;-72
2023/10/28 06:59:00;;;;;;;55.97;2.07;;;;;;;;;;5051053;28;20543;-71
2023/10/28 07:01:27;;;;;;;54.90;1.93;;;;;;;;;;5050435;28;20859;-71
2023/10/28 07:03:54;;;;;;;56.90;2.30;;;;;;;;;;5050901;28;20479;-72
2023/10/28 07:06:23;;;;;;;55.43;1.83;;;;;;;;;;5050873;28;20950;-71
2023/10/28 07:08:50;;;;;;;55.37;1.97;;;;;;;;;;5050908;28;20458;-71
2023/10/28 07:11:17;;;;;;;55.67;1.90;;;;;;;;;;5050625;28;20495;-72
2023/10/28 07:13:45;;;;;;;55.80;1.80;;;;;;;;;;5050573;28;20890;-72
2023/10/28 07:16:12;;;;;;;56.07;2.10;;;;;;;;;;5050840;28;20461;-72
2023/10/28 07:18:39;;;;;;;55.60;1.67;;;;;;;;;;5050320;28;20456;-71
2023/10/28 07:21:06;;;;;;;54.90;1.70;;;;;;;;;;5050429;28;20546;-72
2023/10/28 07:23:35;;;;;;;55.47;1.80;;;;;;;;;;5050505;28;20438;-72
2023/10/28 07:26:02;;;;;;;55.90;1.67;;;;;;;;;;5050419;28;20446;-72
2023/10/28 07:28:33;;;;;;;55.57;1.80;;;;;;;;;;5050601;28;20571;-71
2023/10/28 07:31:01;;;;;;;56.50;2.23;;;;;;;;;;5050671;28;20464;-72
2023/10/28 07:33:29;;;;;;;55.90;1.83;;;;;;;;;;5050952;28;20458;-72
2023/10/28 07:35:56;;;;;;;55.77;1.80;;;;;;;;;;5050862;28;20527;-72
2023/10/28 07:38:23;;;;;;;55.20;1.57;;;;;;;;;;5050412;28;20446;-70
2023/10/28 07:40:52;;;;;;;55.73;1.90;;;;;;;;;;5050209;28;20495;-73
2023/10/28 07:43:19;;;;;;;55.17;1.90;;;;;;;;;;5050441;28;20491;-72
2023/10/28 07:45:47;;;;;;;55.37;1.93;;;;;;;;;;5052045;28;20438;-72
2023/10/28 07:48:14;;;;;;;55.77;2.00;;;;;;;;;;5054090;28;20463;-71
2023/10/28 07:50:43;;;;;;;55.47;2.00;;;;;;;;;;5053944;28;20461;-72
2023/10/28 07:53:11;;;;;;;56.00;2.10;;;;;;;;;;5053997;28;20933;-71
2023/10/28 07:55:39;;;;;;;55.53;2.00;;;;;;;;;;5053590;28;20456;-72
2023/10/28 07:58:07;;;;;;;56.00;1.90;;;;;;;;;;5053769;28;20450;-70
2023/10/28 08:00:36;;;;;;;55.13;1.87;;;;;;;;;;5053746;28;20517;-71
2023/10/28 08:03:04;;;;;;;55.43;2.00;;;;;;;;;;5053843;28;20448;-71
2023/10/28 08:05:31;;;;;;;55.63;1.77;;;;;;;;;;5053473;28;20446;-72
2023/10/28 08:07:58;;;;;;;55.97;1.90;;;;;;;;;;5053706;28;20457;-72
2023/10/28 08:10:25;;;;;;;55.47;1.77;;;;;;;;;;5053716;28;20468;-72
2023/10/28 08:12:53;;;;;;;55.93;1.67;;;;;;;;;;5053949;28;20444;-71
2023/10/28 08:15:22;;;;;;;55.80;2.13;;;;;;;;;;5053513;28;20448;-72
2023/10/28 08:17:50;;;;;;;55.43;2.10;;;;;;;;;;5053554;28;20452;-72
2023/10/28 08:20:18;;;;;;;55.87;1.90;;;;;;;;;;5053285;28;20493;-71
2023/10/28 08:22:45;;;;;;;55.27;1.90;;;;;;;;;;5053180;28;20452;-71
2023/10/28 08:25:15;;;;;;;55.57;1.60;;;;;;;;;;5053355;28;20443;-72
2023/10/28 08:27:44;;;;;;;55.27;1.70;;;;;;;;;;5053464;28;20556;-71
2023/10/28 08:30:13;;;;;;;55.27;1.80;;;;;;;;;;5053109;28;20563;-72
2023/10/28 08:32:41;;;;;;;55.40;1.80;;;;;;;;;;5052989;28;20456;-72
2023/10/28 08:35:09;;;;;;;55.30;1.70;;;;;;;;;;5052854;28;20828;-72
2023/10/28 08:37:36;;;;;;;55.70;1.87;;;;;;;;;;5053119;28;20865;-72
2023/10/28 08:40:06;;;;;;;55.90;1.70;;;;;;;;;;5053149;28;20563;-71
2023/10/28 08:42:34;;;;;;;55.63;1.73;;;;;;;;;;5052941;28;20496;-72
2023/10/28 08:45:03;;;;;;;55.23;1.80;;;;;;;;;;5052927;28;20449;-72
2023/10/28 08:47:33;;;;;;;55.70;2.00;;;;;;;;;;5052819;28;20793;-72
2023/10/28 08:50:05;;;;;;;55.20;1.60;;;;;;;;;;5053084;28;20500;-72
2023/10/28 08:52:34;;;;;;;55.43;2.10;;;;;;;;;;5052915;28;21000;-72
2023/10/28 08:55:02;;;;;;;58.13;2.10;;;;;;;;;;5052754;28;20461;-70
2023/10/28 08:57:29;;;;;;;55.33;1.80;;;;;;;;;;5052744;28;20491;-71
2023/10/28 08:59:56;;;;;;;55.57;1.80;;;;;;;;;;5052584;28;20468;-71
2023/10/28 09:02:25;;;;;;;55.70;1.73;;;;;;;;;;5052533;28;20547;-70
2023/10/28 09:04:52;;;;;;;55.77;1.80;;;;;;;;;;5052595;28;20992;-71
2023/10/28 09:07:21;;;;;;;55.80;1.80;;;;;;;;;;5052510;28;20539;-71
2023/10/28 09:09:57;;;;;;;55.77;1.90;;;;;;;;;;5052304;28;20969;-72
2023/10/28 09:12:25;;;;;;;55.70;1.90;;;;;;;;;;5052524;28;20449;-72
2023/10/28 09:14:52;;;;;;;55.70;1.77;;;;;;;;;;5052227;28;20451;-72
2023/10/28 09:17:20;;;;;;;55.83;2.30;;;;;;;;;;5052516;28;20455;-72
2023/10/28 09:19:47;;;;;;;55.63;1.80;;;;;;;;;;5052061;28;21016;-72
2023/10/28 09:22:15;;;;;;;56.10;2.57;;;;;;;;;;5052186;28;20489;-72
2023/10/28 09:24:47;;;;;;;55.87;2.00;;;;;;;;;;5051950;28;20458;-72
2023/10/28 09:27:14;;;;;;;55.47;1.77;;;;;;;;;;5052241;28;20462;-72
2023/10/28 09:29:42;;;;;;;55.47;1.80;;;;;;;;;;5052295;28;20558;-72
2023/10/28 09:32:10;;;;;;;55.40;1.80;;;;;;;;;;5052156;28;20440;-73
2023/10/28 09:34:38;;;;;;;56.40;3.13;;;;;;;;;;5051818;28;20847;-73
2023/10/28 09:37:05;;;;;;;55.47;1.80;;;;;;;;;;5052039;28;20828;-73
2023/10/28 09:39:33;;;;;;;55.57;1.70;;;;;;;;;;5051721;28;20462;-73
2023/10/28 09:42:01;;;;;;;56.00;1.80;;;;;;;;;;5051749;28;20486;-73
2023/10/28 09:44:28;;;;;;;55.67;1.90;;;;;;;;;;5051808;28;20444;-72
2023/10/28 09:46:58;;;;;;;55.90;1.90;;;;;;;;;;5051774;28;20456;-73
2023/10/28 09:49:29;;;;;;;56.00;1.97;;;;;;;;;;5051972;28;20468;-72
2023/10/28 09:51:59;;;;;;;55.73;1.90;;;;;;;;;;5051683;28;20561;-70
2023/10/28 09:54:29;;;;;;;56.13;1.90;;;;;;;;;;5051535;28;20863;-70
2023/10/28 09:56:58;;;;;;;56.17;2.00;;;;;;;;;;5051769;28;20444;-70
2023/10/28 09:59:27;;;;;;;56.00;2.20;;;;;;;;;;5051734;28;20848;-71
2023/10/28 10:02:02;;;;;;;55.90;1.90;;;;;;;;;;5051236;28;20488;-73
2023/10/28 10:04:32;;;;;;;55.67;1.93;;;;;;;;;;5051440;28;20455;-71
2023/10/28 10:06:59;;;;;;;55.97;1.90;;;;;;;;;;5051346;28;20447;-70
2023/10/28 10:09:26;;;;;;;56.10;2.17;;;;;;;;;;5051407;28;20470;-70
2023/10/28 10:11:54;;;;;;;55.87;1.90;;;;;;;;;;5051776;28;20429;-70
2023/10/28 10:14:22;;;;;;;55.90;1.90;;;;;;;;;;5051556;28;20540;-70
2023/10/28 10:16:56;;;;;;;56.00;1.90;;;;;;;;;;5051252;28;20476;-71
2023/10/28 10:19:25;;;;;;;55.53;1.70;;;;;;;;;;5051192;28;20505;-73
2023/10/28 10:21:52;;;;;;;55.73;2.27;;;;;;;;;;5051231;28;20493;-71
2023/10/28 10:24:20;;;;;;;55.87;1.80;;;;;;;;;;5051348;28;20451;-71
2023/10/28 10:26:54;;;;;;;56.10;1.70;;;;;;;;;;5051206;28;20455;-72
2023/10/28 10:29:22;;;;;;;55.87;2.17;;;;;;;;;;5051061;28;20472;-72
2023/10/28 10:31:51;;;;;;;56.10;2.13;;;;;;;;;;5050758;28;20813;-71
2023/10/28 10:34:32;;;;;;;55.97;1.80;;;;;;;;;;5051108;28;20871;-72
2023/10/28 10:36:59;;;;;;;56.10;2.20;;;;;;;;;;5051134;28;20542;-72
2023/10/28 10:39:26;;;;;;;56.40;2.20;;;;;;;;;;5050999;28;20465;-72
2023/10/28 10:41:54;;;;;;;56.10;2.00;;;;;;;;;;5051024;28;20590;-72
2023/10/28 10:44:26;;;;;;;55.80;1.73;;;;;;;;;;5050667;28;20447;-72
2023/10/28 10:46:56;;;;;;;55.87;1.83;;;;;;;;;;5050660;28;20498;-72
2023/10/28 10:49:24;;;;;;;55.77;1.90;;;;;;;;;;5050879;28;20473;-72
2023/10/28 10:51:51;;;;;;;56.00;2.00;;;;;;;;;;5050857;28;20455;-71
2023/10/28 10:54:19;;;;;;;56.20;2.10;;;;;;;;;;5050800;28;20459;-73
2023/10/28 10:56:46;;;;;;;55.93;2.10;;;;;;;;;;5050566;28;20458;-72
2023/10/28 10:59:13;;;;;;;56.20;1.80;;;;;;;;;;5050929;28;20463;-73
2023/10/28 11:01:40;;;;;;;55.73;1.97;;;;;;;;;;5050420;28;20491;-73
2023/10/28 11:04:07;;;;;;;55.77;1.80;;;;;;;;;;5050876;28;20456;-72
2023/10/28 11:06:36;;;;;;;55.90;2.00;;;;;;;;;;5050958;28;20448;-72
2023/10/28 11:09:04;;;;;;;55.97;1.90;;;;;;;;;;5051238;28;20512;-73
2023/10/28 11:11:35;;;;;;;55.77;1.80;;;;;;;;;;5050671;28;20482;-73
2023/10/28 11:14:02;;;;;;;56.00;1.87;;;;;;;;;;5050760;28;20828;-72
2023/10/28 11:16:30;;;;;;;55.47;1.97;;;;;;;;;;5050445;28;20440;-72
2023/10/28 11:18:57;;;;;;;55.30;1.77;;;;;;;;;;5050623;28;20824;-72
2023/10/28 11:21:24;;;;;;;55.67;1.80;;;;;;;;;;5053721;28;20505;-72
2023/10/28 11:23:53;;;;;;;56.00;1.70;;;;;;;;;;5055258;28;20455;-73
2023/10/28 11:26:20;;;;;;;55.90;1.80;;;;;;;;;;5055614;28;20961;-73
2023/10/28 11:28:47;;;;;;;55.87;2.10;;;;;;;;;;5054974;28;20454;-73
2023/10/28 11:31:15;;;;;;;55.47;1.90;;;;;;;;;;5054701;28;20510;-73
2023/10/28 11:33:42;;;;;;;56.10;2.10;;;;;;;;;;5054541;28;21023;-74
2023/10/28 11:36:09;;;;;;;56.70;2.20;;;;;;;;;;5054234;28;20966;-73
2023/10/28 11:38:36;;;;;;;55.87;1.93;;;;;;;;;;5054143;28;20444;-73
2023/10/28 11:41:06;;;;;;;57.73;2.80;;;;;;;;;;5058954;28;20986;-74
2023/10/28 11:43:33;;;;;;;55.97;2.03;;;;;;;;;;5055379;28;20452;-72
2023/10/28 11:46:00;;;;;;;55.70;1.83;;;;;;;;;;5046130;28;20450;-74
2023/10/28 11:48:27;;;;;;;56.03;1.93;;;;;;;;;;5054555;28;20450;-74
2023/10/28 11:50:55;;;;;;;56.10;2.30;;;;;;;;;;5053657;28;20474;-73
2023/10/28 11:53:24;;;;;;;55.77;1.70;;;;;;;;;;5056406;28;20450;-73
2023/10/28 11:55:51;;;;;;;55.80;1.87;;;;;;;;;;5055433;28;20466;-74
2023/10/28 11:58:20;;;;;;;56.30;1.90;;;;;;;;;;5055837;28;20442;-74
2023/10/28 12:00:50;;;;;;;55.77;1.90;;;;;;;;;;5055131;28;20484;-73
2023/10/28 12:03:17;;;;;;;55.77;1.80;;;;;;;;;;5055827;28;20585;-73
2023/10/28 12:05:44;;;;;;;55.77;1.70;;;;;;;;;;5055580;28;20458;-74
2023/10/28 12:08:12;;;;;;;56.10;1.90;;;;;;;;;;5055641;28;20446;-74
2023/10/28 12:10:43;;;;;;;55.77;1.70;;;;;;;;;;5055506;28;20463;-74
2023/10/28 12:13:10;;;;;;;56.33;1.97;;;;;;;;;;5056495;28;20476;-74
2023/10/28 12:15:38;;;;;;;56.27;1.93;;;;;;;;;;5054795;28;20456;-72
2023/10/28 12:18:06;;;;;;;55.77;2.00;;;;;;;;;;5054737;28;20455;-73
2023/10/28 12:20:33;;;;;;;67.80;2.23;;;;;;;;;;5055029;28;20474;-73
2023/10/28 12:23:00;;;;;;;56.10;1.97;;;;;;;;;;5054915;28;20851;-73
2023/10/28 12:25:27;;;;;;;55.90;2.10;;;;;;;;;;5056379;28;20450;-73
2023/10/28 12:27:54;;;;;;;56.00;1.83;;;;;;;;;;5055493;28;20506;-73
2023/10/28 12:30:21;;;;;;;55.87;2.00;;;;;;;;;;5053992;28;20474;-73
2023/10/28 12:32:51;;;;;;;55.77;2.00;;;;;;;;;;5055334;28;20453;-73
2023/10/28 12:35:19;;;;;;;56.20;2.00;;;;;;;;;;5053900;28;20925;-74
2023/10/28 12:37:46;;;;;;;55.67;1.80;;;;;;;;;;5055792;28;20906;-73
2023/10/28 12:40:13;;;;;;;55.80;1.80;;;;;;;;;;5055975;28;20469;-74
2023/10/28 12:42:41;;;;;;;55.57;2.00;;;;;;;;;;5054803;28;20490;-73
2023/10/28 12:45:10;;;;;;;55.73;1.93;;;;;;;;;;5054415;28;20450;-74
2023/10/28 12:47:37;;;;;;;55.80;1.90;;;;;;;;;;5055012;28;20531;-74
2023/10/28 12:50:06;;;;;;;55.77;1.90;;;;;;;;;;5047192;28;20470;-73
2023/10/28 12:52:33;;;;;;;55.73;1.90;;;;;;;;;;5059512;28;20570;-75
2023/10/28 12:55:02;;;;;;;55.47;1.77;;;;;;;;;;5053134;28;20822;-74
2023/10/28 12:57:29;;;;;;;56.07;2.23;;;;;;;;;;5055837;28;20454;-74
2023/10/28 12:59:56;;;;;;;55.77;1.80;;;;;;;;;;5054859;28;20468;-74
2023/10/28 13:02:25;;;;;;;55.83;2.10;;;;;;;;;;5053163;28;20924;-72
2023/10/28 13:04:52;;;;;;;55.97;1.90;;;;;;;;;;5053829;28;20454;-72
2023/10/28 13:07:21;;;;;;;55.90;1.70;;;;;;;;;;5054844;28;20450;-73
2023/10/28 13:09:49;;;;;;;55.67;2.00;;;;;;;;;;5054540;28;20529;-73
2023/10/28 13:12:16;;;;;;;55.90;1.83;;;;;;;;;;5055515;28;20508;-73
2023/10/28 13:14:43;;;;;;;55.77;1.80;;;;;;;;;;5055349;28;20534;-73
2023/10/28 13:17:10;;;;;;;55.90;1.90;;;;;;;;;;5054166;28;20465;-73
2023/10/28 13:19:37;;;;;;;56.50;2.20;;;;;;;;;;5055159;28;20845;-73
2023/10/28 13:22:04;;;;;;;55.83;1.80;;;;;;;;;;5054658;28;20848;-74
2023/10/28 13:24:32;;;;;;;56.20;2.00;;;;;;;;;;5054293;28;20448;-73
2023/10/28 13:26:59;;;;;;;55.97;1.90;;;;;;;;;;5055039;28;20445;-73
2023/10/28 13:29:27;;;;;;;56.17;2.23;;;;;;;;;;5054554;28;20473;-72
2023/10/28 13:31:54;;;;;;;55.20;2.10;;;;;;;;;;5054071;28;20546;-73
2023/10/28 13:34:23;;;;;;;55.77;1.80;;;;;;;;;;5054302;28;20936;-73
2023/10/28 13:36:50;;;;;;;55.90;1.80;;;;;;;;;;5054012;28;20836;-72
2023/10/28 13:39:18;;;;;;;59.70;2.00;;;;;;;;;;5053878;28;20471;-73
2023/10/28 13:41:46;;;;;;;55.80;2.07;;;;;;;;;;5054687;28;20537;-72
2023/10/28 13:44:13;;;;;;;55.90;2.00;;;;;;;;;;5054258;28;20748;-73
2023/10/28 13:46:40;;;;;;;56.13;2.00;;;;;;;;;;5054703;28;20456;-72
2023/10/28 13:49:07;;;;;;;55.77;1.70;;;;;;;;;;5054344;28;20931;-73
2023/10/28 13:51:35;;;;;;;55.00;1.70;;;;;;;;;;5053756;28;20542;-73
2023/10/28 13:54:02;;;;;;;55.67;1.90;;;;;;;;;;5052447;28;20480;-73
2023/10/28 13:56:29;;;;;;;55.40;2.00;;;;;;;;;;5053970;28;20443;-72
2023/10/28 13:58:58;;;;;;;55.33;1.70;;;;;;;;;;5054550;28;20454;-73
2023/10/28 14:01:25;;;;;;;55.90;1.73;;;;;;;;;;5053793;28;20461;-73
2023/10/28 14:03:53;;;;;;;56.20;2.07;;;;;;;;;;5053250;28;20502;-73
2023/10/28 14:06:20;;;;;;;55.97;1.80;;;;;;;;;;5051818;28;20582;-73
2023/10/28 14:08:47;;;;;;;57.07;2.10;;;;;;;;;;5053952;28;21035;-72
2023/10/28 14:11:15;;;;;;;55.80;1.93;;;;;;;;;;5052815;28;20466;-72
2023/10/28 14:13:42;;;;;;;55.73;1.90;;;;;;;;;;5052972;28;20441;-73
2023/10/28 14:16:17;;;;;;;55.80;2.10;;;;;;;;;;5052803;28;20504;-73
2023/10/28 14:18:49;;;;;;;55.90;2.10;;;;;;;;;;5053200;28;20446;-72
2023/10/28 14:21:17;;;;;;;56.10;1.90;;;;;;;;;;5056033;28;20844;-73
2023/10/28 14:23:44;;;;;;;55.77;1.90;;;;;;;;;;5054370;28;20486;-73
2023/10/28 14:26:11;;;;;;;55.90;1.90;;;;;;;;;;5055637;28;20503;-72
2023/10/28 14:28:38;;;;;;;55.90;2.07;;;;;;;;;;5055057;28;20444;-73
2023/10/28 14:31:06;;;;;;;56.20;2.10;;;;;;;;;;5054341;28;20462;-72
2023/10/28 14:33:34;;;;;;;55.77;1.80;;;;;;;;;;5052978;28;20448;-73